This is the latest recevied weather packets stored in our database for station/object I2HLY-3. If no packets are shown the sender has not sent any weather packets the latest 1 day(s).
| Time | Temp. | Humidity | Pressure | Rain* | Wind** | Luminosity | Snow |
|---|---|---|---|---|---|---|---|
| 1778103150 | 11.67° C | 93% | 1009 hPa | 0 mm | - | - | - |
| 1778100455 | 12.22° C | 89% | 1008.8 hPa | 0 mm | - | - | - |
| 1778097744 | 12.22° C | 89% | 1008.6 hPa | 1.02 mm | - | - | - |
| 1778078846 | 17.78° C | 82% | 1005 hPa | 0 mm | - | - | - |
| 1778073451 | 17.78° C | 82% | 1005.8 hPa | 0 mm | - | - | - |
| 1778071638 | 17.22° C | 86% | 1006.3 hPa | 0 mm | - | - | - |
| 1778061735 | 15.56° C | 91% | 1007 hPa | 1.02 mm | - | - | - |
| 1778060841 | 14.44° C | 93% | 1007.1 hPa | 1.02 mm | - | - | - |
| 1778059941 | 13.89° C | 93% | 1007 hPa | 1.02 mm | - | - | - |
| 1778057248 | 13.33° C | 93% | 1007.1 hPa | 0 mm | - | - | - |
| 1778055450 | 13.89° C | 91% | 1007 hPa | 0 mm | - | - | - |
| 1778053636 | 13.89° C | 93% | 1006.8 hPa | 0 mm | - | - | - |
| 1778052736 | 13.89° C | 93% | 1006.9 hPa | 0 mm | - | - | - |
| 1778050944 | 13.33° C | 94% | 1007.3 hPa | 0 mm | - | - | - |
| 1778048250 | 13.89° C | 94% | 1007.2 hPa | 0 mm | - | - | - |
| 1778045536 | 13.33° C | 95% | 1007.3 hPa | 0 mm | - | - | - |
| 1778044637 | 13.33° C | 94% | 1007.4 hPa | 0 mm | - | - | - |
| 1778042843 | 13.33° C | 94% | 1007.9 hPa | 0 mm | - | - | - |
| 1778041944 | 13.33° C | 94% | 1007.9 hPa | 0 mm | - | - | - |
| 1778041046 | 13.33° C | 94% | 1008 hPa | 0 mm | - | - | - |
| 1778040149 | 13.33° C | 94% | 1008.2 hPa | 0 mm | - | - | - |
| 1778039245 | 13.33° C | 94% | 1008 hPa | 0 mm | - | - | - |
| 1778038346 | 13.33° C | 94% | 1007.9 hPa | 0 mm | - | - | - |
| 1778037450 | 13.33° C | 94% | 1008 hPa | 0 mm | - | - | - |
| 1778035652 | 13.33° C | 94% | 1008.7 hPa | 0 mm | - | - | - |
* Rain latest hour (hover to see other rain measurements)
** Current wind speed in m/s (hover to see current wind gust speed)